Terminal Aerodrome Forecast
Issued by NWS

Home | Current Version | Previous Version | Text Only | Print | Product List | Glossary On
Versions: 1 2 3 4 5 6 7 8 9 10 11 12 13 14 15 16 17 18 19
000
FTUS43 KEAX 231700
TAFSTJ
TAF
KSTJ 231726Z 2318/2418 28008KT P6SM OVC018
     FM240000 34013KT P6SM OVC012
     FM240600 33012KT 3SM -SN BR OVC008
     FM241300 32012KT P6SM OVC012=

USA.gov is the U.S. government's official web portal to all federal, state and local government web resources and services.